createdAt,value
2023-05-18T00:01:12.228Z,5.24
2023-05-18T00:03:39.017Z,5.21
2023-05-18T00:06:07.286Z,5.20
2023-05-18T00:08:38.391Z,5.21
2023-05-18T00:11:06.414Z,5.17
2023-05-18T00:13:33.760Z,5.12
2023-05-18T00:16:00.675Z,5.11
2023-05-18T00:18:28.160Z,5.10
2023-05-18T00:20:58.680Z,5.04
2023-05-18T00:23:33.202Z,5.00
2023-05-18T00:26:01.334Z,4.95
2023-05-18T00:28:28.729Z,4.94
2023-05-18T00:30:56.097Z,4.90
2023-05-18T00:33:23.221Z,4.88
2023-05-18T00:35:49.851Z,4.87
2023-05-18T00:38:17.025Z,4.84
2023-05-18T00:40:44.192Z,4.80
2023-05-18T00:43:11.026Z,4.79
2023-05-18T00:45:37.700Z,4.76
2023-05-18T00:48:04.860Z,4.73
2023-05-18T00:50:31.910Z,4.70
2023-05-18T00:52:59.177Z,4.70
2023-05-18T00:55:28.008Z,4.64
2023-05-18T00:57:56.533Z,4.60
2023-05-18T01:00:24.058Z,4.59
2023-05-18T01:02:51.239Z,4.54
2023-05-18T01:05:19.928Z,4.53
2023-05-18T01:07:46.912Z,4.53
2023-05-18T01:10:16.626Z,4.46
2023-05-18T01:12:51.054Z,4.48
2023-05-18T01:15:27.804Z,4.45
2023-05-18T01:18:14.963Z,4.40
2023-05-18T01:21:04.671Z,4.42
2023-05-18T01:23:55.562Z,4.36
2023-05-18T01:26:31.829Z,4.36
2023-05-18T01:29:00.754Z,4.31
2023-05-18T01:31:28.866Z,4.31
2023-05-18T01:33:55.963Z,4.26
2023-05-18T01:36:22.757Z,4.23
2023-05-18T01:38:49.879Z,4.19
2023-05-18T01:41:24.283Z,4.15
2023-05-18T01:44:18.026Z,4.15
2023-05-18T01:46:57.059Z,4.09
2023-05-18T01:49:28.878Z,4.05
2023-05-18T01:51:57.616Z,3.97
2023-05-18T01:54:26.658Z,3.94
2023-05-18T01:56:56.037Z,3.90
2023-05-18T01:59:24.074Z,3.88
2023-05-18T02:01:51.509Z,3.84
2023-05-18T02:04:27.174Z,3.77
2023-05-18T02:06:54.553Z,3.71
2023-05-18T02:09:22.253Z,3.64
2023-05-18T02:11:49.515Z,3.61
2023-05-18T02:14:16.473Z,3.61
2023-05-18T02:16:47.243Z,3.59
2023-05-18T02:19:15.891Z,3.56
2023-05-18T02:21:43.560Z,3.56
2023-05-18T02:24:12.426Z,3.53
2023-05-18T02:26:39.538Z,3.53
2023-05-18T02:29:06.587Z,3.51
2023-05-18T02:31:33.336Z,3.53
2023-05-18T02:34:00.001Z,3.49
2023-05-18T02:36:26.623Z,3.46
2023-05-18T02:38:54.106Z,3.46
2023-05-18T02:41:21.440Z,3.41
2023-05-18T02:43:48.300Z,3.41
2023-05-18T02:46:14.967Z,3.39
2023-05-18T02:48:45.634Z,3.39
2023-05-18T02:51:12.625Z,3.37
2023-05-18T02:53:39.653Z,3.34
2023-05-18T02:56:06.712Z,3.30
2023-05-18T02:58:33.359Z,3.32
2023-05-18T03:01:00.429Z,3.27
2023-05-18T03:03:27.411Z,3.27
2023-05-18T03:05:54.063Z,3.26
2023-05-18T03:08:22.668Z,3.27
2023-05-18T03:10:50.256Z,3.30
2023-05-18T03:13:16.910Z,3.32
2023-05-18T03:15:45.533Z,3.32
2023-05-18T03:18:12.733Z,3.37
2023-05-18T03:20:39.458Z,3.40
2023-05-18T03:23:06.318Z,3.39
2023-05-18T03:25:32.970Z,3.43
2023-05-18T03:27:59.696Z,3.47
2023-05-18T03:30:26.367Z,3.49
2023-05-18T03:32:53.772Z,3.51
2023-05-18T03:35:20.596Z,3.54
2023-05-18T03:37:47.230Z,3.57
2023-05-18T03:40:15.584Z,3.59
2023-05-18T03:42:42.749Z,3.60
2023-05-18T03:45:11.083Z,3.60
2023-05-18T03:47:38.898Z,3.63
2023-05-18T03:50:07.152Z,3.66
2023-05-18T03:52:34.758Z,3.67
2023-05-18T03:55:01.948Z,3.73
2023-05-18T03:57:29.420Z,3.74
2023-05-18T03:59:56.806Z,3.75
2023-05-18T04:02:24.113Z,3.78
2023-05-18T04:04:53.937Z,3.80
2023-05-18T04:07:22.274Z,3.84
2023-05-18T04:09:49.423Z,3.87
2023-05-18T04:12:16.153Z,3.91
2023-05-18T04:14:42.944Z,3.95
2023-05-18T04:17:10.163Z,4.03
2023-05-18T04:19:37.957Z,4.06
2023-05-18T04:22:08.704Z,4.15
2023-05-18T04:24:35.626Z,4.26
2023-05-18T04:27:02.982Z,4.38
2023-05-18T04:29:30.201Z,4.49
2023-05-18T04:32:01.011Z,4.57
2023-05-18T04:34:29.285Z,4.64
2023-05-18T04:36:58.628Z,4.73
2023-05-18T04:39:25.965Z,4.83
2023-05-18T04:41:59.411Z,4.93
2023-05-18T04:44:27.445Z,5.07
2023-05-18T04:46:57.087Z,5.21
2023-05-18T04:49:23.776Z,5.35
2023-05-18T04:51:55.618Z,5.49
2023-05-18T04:54:24.032Z,5.60
2023-05-18T04:56:51.670Z,5.76
2023-05-18T04:59:19.315Z,5.89
2023-05-18T05:01:46.678Z,6.09
2023-05-18T05:04:13.819Z,6.18
2023-05-18T05:06:40.554Z,6.37
2023-05-18T05:09:07.242Z,6.55
2023-05-18T05:11:34.634Z,6.72
2023-05-18T05:14:02.805Z,6.92
2023-05-18T05:16:29.665Z,7.04
2023-05-18T05:18:56.378Z,7.19
2023-05-18T05:21:23.288Z,7.33
2023-05-18T05:23:49.921Z,7.61
2023-05-18T05:26:16.723Z,7.82
2023-05-18T05:28:43.298Z,7.98
2023-05-18T05:31:09.991Z,8.15
2023-05-18T05:33:37.001Z,8.37
2023-05-18T05:36:05.257Z,8.56
2023-05-18T05:38:32.624Z,8.78
2023-05-18T05:40:59.239Z,9.05
2023-05-18T05:43:26.343Z,9.22
2023-05-18T05:45:52.987Z,9.45
2023-05-18T05:48:19.628Z,9.67
2023-05-18T05:50:46.619Z,9.90
2023-05-18T05:53:17.628Z,10.07
2023-05-18T05:55:44.241Z,10.24
2023-05-18T05:58:11.089Z,10.52
2023-05-18T06:00:37.670Z,11.68
2023-05-18T06:03:04.364Z,13.48
2023-05-18T06:05:31.371Z,14.95
2023-05-18T06:07:58.142Z,16.11
2023-05-18T06:10:25.027Z,16.70
2023-05-18T06:12:51.621Z,17.56
2023-05-18T06:15:19.191Z,17.87
2023-05-18T06:17:47.061Z,18.14
2023-05-18T06:20:14.091Z,18.62
2023-05-18T06:22:41.036Z,18.72
2023-05-18T06:25:08.464Z,19.01
2023-05-18T06:27:35.081Z,18.99
2023-05-18T06:30:01.730Z,19.47
2023-05-18T06:32:28.549Z,19.91
2023-05-18T06:34:56.467Z,19.88
2023-05-18T06:37:23.307Z,19.87
2023-05-18T06:39:50.040Z,20.18
2023-05-18T06:42:16.768Z,20.63
2023-05-18T06:44:43.514Z,20.26
2023-05-18T06:47:10.231Z,20.90
2023-05-18T06:49:36.838Z,21.04
2023-05-18T06:52:04.471Z,21.32
2023-05-18T06:54:31.185Z,20.83
2023-05-18T06:56:57.830Z,21.30
2023-05-18T06:59:24.526Z,21.40
2023-05-18T07:01:51.287Z,21.55
2023-05-18T07:04:19.334Z,22.03
2023-05-18T07:06:46.585Z,21.81
2023-05-18T07:09:13.451Z,22.10
2023-05-18T07:11:40.450Z,22.36
2023-05-18T07:14:07.104Z,21.77
2023-05-18T07:16:33.995Z,21.79
2023-05-18T07:19:00.737Z,22.79
2023-05-18T07:21:27.338Z,22.60
2023-05-18T07:23:53.951Z,23.48
2023-05-18T07:26:22.514Z,23.76
2023-05-18T07:28:49.807Z,23.87
2023-05-18T07:31:16.730Z,24.01
2023-05-18T07:33:44.720Z,24.31
2023-05-18T07:36:11.384Z,24.76
2023-05-18T07:38:37.987Z,24.13
2023-05-18T07:41:04.608Z,22.30
2023-05-18T07:43:31.431Z,20.01
2023-05-18T07:45:58.173Z,18.65
2023-05-18T07:48:24.995Z,19.70
2023-05-18T07:50:51.715Z,22.41
2023-05-18T07:53:18.607Z,22.57
2023-05-18T07:55:45.681Z,21.52
2023-05-18T07:58:13.325Z,21.98
2023-05-18T08:00:39.981Z,21.40
2023-05-18T08:03:06.979Z,19.23
2023-05-18T08:05:33.914Z,19.09
2023-05-18T08:08:00.823Z,20.32
2023-05-18T08:10:27.539Z,19.12
2023-05-18T08:12:54.167Z,21.12
2023-05-18T08:15:20.927Z,19.61
2023-05-18T08:17:47.683Z,21.28
2023-05-18T08:20:14.285Z,20.62
2023-05-18T08:22:41.135Z,19.33
2023-05-18T08:25:10.115Z,18.41
2023-05-18T08:27:36.809Z,17.96
2023-05-18T08:30:03.655Z,17.43
2023-05-18T08:32:30.450Z,16.84
2023-05-18T08:34:57.172Z,16.38
2023-05-18T08:37:29.244Z,16.57
2023-05-18T08:39:56.384Z,15.95
2023-05-18T08:42:41.553Z,16.57
2023-05-18T08:45:24.129Z,16.57
2023-05-18T08:47:51.713Z,16.49
2023-05-18T08:50:24.104Z,16.36
2023-05-18T08:52:59.879Z,16.33
2023-05-18T08:55:28.762Z,16.23
2023-05-18T08:57:58.205Z,16.05
2023-05-18T09:00:25.162Z,15.97
2023-05-18T09:02:52.269Z,16.01
2023-05-18T09:05:21.286Z,16.16
2023-05-18T09:07:50.344Z,16.26
2023-05-18T09:10:17.392Z,16.57
2023-05-18T09:12:46.919Z,18.95
2023-05-18T09:15:15.853Z,21.45
2023-05-18T09:17:42.644Z,22.81
2023-05-18T09:20:10.213Z,23.71
2023-05-18T09:22:37.056Z,23.97
2023-05-18T09:25:04.131Z,23.79
2023-05-18T09:27:31.223Z,22.36
2023-05-18T09:29:58.888Z,21.12
2023-05-18T09:32:26.423Z,19.73
2023-05-18T09:34:53.909Z,19.12
2023-05-18T09:37:21.666Z,18.55
2023-05-18T09:40:07.682Z,18.58
2023-05-18T09:42:44.353Z,19.37
2023-05-18T09:45:18.327Z,21.93
2023-05-18T09:47:45.565Z,23.41
2023-05-18T09:50:12.476Z,25.38
2023-05-18T09:52:44.029Z,26.57
2023-05-18T09:55:15.653Z,27.18
2023-05-18T09:57:47.265Z,26.82
2023-05-18T10:00:15.590Z,27.59
2023-05-18T10:02:48.189Z,27.65
2023-05-18T10:05:28.077Z,27.85
2023-05-18T10:07:55.720Z,28.36
2023-05-18T10:10:24.094Z,28.54
2023-05-18T10:12:52.018Z,27.01
2023-05-18T10:15:21.052Z,25.81
2023-05-18T10:17:49.127Z,23.69
2023-05-18T10:20:19.147Z,22.43
2023-05-18T10:22:47.873Z,22.20
2023-05-18T10:25:21.051Z,21.57
2023-05-18T10:27:53.024Z,21.24
2023-05-18T10:30:20.170Z,22.13
2023-05-18T10:32:47.921Z,21.47
2023-05-18T10:35:16.127Z,21.86
2023-05-18T10:37:47.825Z,23.73
2023-05-18T10:40:15.682Z,24.79
2023-05-18T10:42:43.474Z,25.19
2023-05-18T10:45:10.700Z,25.60
2023-05-18T10:47:42.417Z,24.41
2023-05-18T10:50:10.075Z,23.65
2023-05-18T10:52:37.955Z,23.01
2023-05-18T10:55:06.765Z,22.36
2023-05-18T10:57:49.764Z,21.77
2023-05-18T11:00:16.702Z,21.75
2023-05-18T11:02:44.220Z,23.30
2023-05-18T11:05:11.970Z,24.59
2023-05-18T11:07:39.011Z,24.73
2023-05-18T11:10:11.700Z,23.74
2023-05-18T11:12:40.334Z,22.72
2023-05-18T11:15:07.968Z,22.16
2023-05-18T11:17:34.940Z,21.52
2023-05-18T11:20:12.807Z,21.42
2023-05-18T11:22:50.064Z,23.42
2023-05-18T11:25:29.068Z,24.83
2023-05-18T11:28:01.796Z,24.76
2023-05-18T11:30:36.260Z,26.12
2023-05-18T11:33:11.341Z,24.38
2023-05-18T11:35:56.452Z,23.67
2023-05-18T11:38:27.957Z,23.45
2023-05-18T11:40:59.366Z,24.16
2023-05-18T11:43:26.543Z,25.75
2023-05-18T11:45:58.933Z,27.18
2023-05-18T11:48:27.510Z,27.03
2023-05-18T11:50:55.375Z,27.01
2023-05-18T11:53:27.048Z,25.13
2023-05-18T11:55:59.499Z,23.94
2023-05-18T11:58:26.508Z,25.22
2023-05-18T12:00:54.397Z,25.47
2023-05-18T12:03:26.116Z,25.03
2023-05-18T12:05:53.504Z,25.67
2023-05-18T12:08:20.610Z,24.61
2023-05-18T12:10:48.704Z,23.09
2023-05-18T12:13:17.761Z,22.29
2023-05-18T12:15:44.796Z,21.47
2023-05-18T12:18:11.619Z,21.06
2023-05-18T12:20:41.428Z,21.71
2023-05-18T12:23:08.134Z,23.07
2023-05-18T12:25:36.453Z,23.23
2023-05-18T12:28:04.770Z,23.41
2023-05-18T12:30:35.954Z,22.87
2023-05-18T12:33:04.017Z,22.12
2023-05-18T12:35:32.002Z,21.78
2023-05-18T12:38:02.791Z,21.28
2023-05-18T12:40:48.730Z,20.97
2023-05-18T12:43:15.806Z,20.89
2023-05-18T12:45:44.439Z,21.65
2023-05-18T12:48:12.967Z,21.95
2023-05-18T12:50:52.920Z,21.83
2023-05-18T12:53:19.717Z,22.03
2023-05-18T12:55:57.773Z,21.98
2023-05-18T12:58:24.779Z,21.90
2023-05-18T13:00:51.457Z,21.71
2023-05-18T13:03:21.613Z,21.38
2023-05-18T13:06:03.496Z,21.12
2023-05-18T13:08:31.910Z,20.94
2023-05-18T13:11:14.231Z,20.89
2023-05-18T13:14:10.639Z,20.99
2023-05-18T13:16:45.070Z,21.68
2023-05-18T13:19:17.757Z,21.03
2023-05-18T13:21:44.556Z,20.50
2023-05-18T13:24:11.357Z,20.89
2023-05-18T13:26:37.942Z,21.28
2023-05-18T13:29:05.011Z,21.57
2023-05-18T13:31:31.779Z,20.59
2023-05-18T13:33:58.518Z,20.40
2023-05-18T13:36:26.022Z,21.61
2023-05-18T13:38:52.670Z,21.72
2023-05-18T13:41:19.399Z,21.66
2023-05-18T13:43:46.125Z,21.35
2023-05-18T13:46:13.256Z,20.89
2023-05-18T13:48:39.912Z,20.40
2023-05-18T13:51:06.730Z,19.94
2023-05-18T13:53:33.448Z,19.70
2023-05-18T13:56:00.248Z,19.81
2023-05-18T13:58:26.814Z,20.39
2023-05-18T14:00:54.400Z,20.59
2023-05-18T14:03:21.226Z,20.46
2023-05-18T14:05:48.001Z,21.00
2023-05-18T14:08:14.711Z,21.28
2023-05-18T14:10:41.669Z,21.34
2023-05-18T14:13:09.193Z,20.89
2023-05-18T14:15:36.065Z,20.63
2023-05-18T14:18:02.840Z,20.38
2023-05-18T14:20:30.262Z,20.50
2023-05-18T14:22:57.186Z,20.69
2023-05-18T14:25:23.858Z,20.81
2023-05-18T14:27:50.525Z,20.55
2023-05-18T14:30:17.156Z,20.25
2023-05-18T14:32:43.791Z,20.18
2023-05-18T14:35:10.572Z,19.90
2023-05-18T14:37:37.284Z,20.08
2023-05-18T14:40:05.795Z,20.28
2023-05-18T14:42:32.526Z,20.29
2023-05-18T14:44:59.170Z,20.31
2023-05-18T14:47:25.889Z,20.08
2023-05-18T14:49:52.659Z,19.87
2023-05-18T14:52:19.313Z,19.66
2023-05-18T14:54:47.764Z,19.59
2023-05-18T14:57:14.452Z,19.37
2023-05-18T14:59:41.390Z,19.53
2023-05-18T15:02:08.353Z,19.30
2023-05-18T15:04:36.037Z,19.32
2023-05-18T15:07:03.020Z,19.45
2023-05-18T15:09:29.598Z,19.49
2023-05-18T15:11:56.281Z,19.51
2023-05-18T15:14:22.993Z,19.53
2023-05-18T15:16:49.766Z,19.36
2023-05-18T15:19:16.602Z,19.32
2023-05-18T15:21:44.759Z,18.94
2023-05-18T15:24:11.396Z,18.84
2023-05-18T15:26:38.094Z,18.71
2023-05-18T15:29:04.704Z,18.61
2023-05-18T15:31:32.952Z,18.79
2023-05-18T15:33:59.837Z,19.03
2023-05-18T15:36:26.641Z,19.18
2023-05-18T15:38:53.295Z,19.30
2023-05-18T15:41:19.963Z,19.22
2023-05-18T15:43:46.763Z,19.34
2023-05-18T15:46:13.443Z,19.43
2023-05-18T15:48:40.051Z,19.53
2023-05-18T15:51:07.512Z,19.49
2023-05-18T15:53:34.224Z,19.30
2023-05-18T15:56:01.042Z,19.10
2023-05-18T15:58:27.842Z,18.92
2023-05-18T16:00:54.590Z,18.50
2023-05-18T16:03:21.490Z,18.45
2023-05-18T16:05:48.371Z,18.41
2023-05-18T16:08:15.104Z,18.29
2023-05-18T16:10:41.816Z,18.29
2023-05-18T16:13:08.645Z,18.31
2023-05-18T16:15:35.538Z,18.24
2023-05-18T16:18:02.426Z,18.16
2023-05-18T16:20:29.457Z,18.16
2023-05-18T16:22:56.365Z,18.01
2023-05-18T16:25:23.521Z,18.00
2023-05-18T16:27:50.704Z,17.93
2023-05-18T16:30:17.570Z,17.89
2023-05-18T16:32:44.486Z,17.76
2023-05-18T16:35:11.536Z,17.72
2023-05-18T16:37:38.693Z,17.69
2023-05-18T16:40:06.229Z,17.65
2023-05-18T16:42:33.193Z,17.56
2023-05-18T16:44:59.967Z,17.48
2023-05-18T16:47:27.612Z,17.39
2023-05-18T16:49:55.021Z,17.36
2023-05-18T16:52:21.713Z,17.32
2023-05-18T16:54:48.462Z,17.27
2023-05-18T16:57:15.644Z,17.25
2023-05-18T16:59:42.616Z,17.17
2023-05-18T17:02:13.227Z,17.10
2023-05-18T17:04:44.609Z,17.07
2023-05-18T17:07:12.326Z,16.91
2023-05-18T17:09:41.403Z,16.90
2023-05-18T17:12:09.834Z,16.87
2023-05-18T17:14:36.981Z,16.80
2023-05-18T17:17:04.543Z,16.74
2023-05-18T17:19:31.176Z,16.67
2023-05-18T17:21:57.796Z,16.60
2023-05-18T17:24:24.450Z,16.56
2023-05-18T17:26:51.127Z,16.46
2023-05-18T17:29:19.597Z,16.36
2023-05-18T17:31:47.686Z,16.26
2023-05-18T17:34:14.296Z,16.16
2023-05-18T17:36:42.532Z,16.11
2023-05-18T17:39:09.281Z,16.02
2023-05-18T17:41:36.330Z,15.88
2023-05-18T17:44:03.330Z,15.72
2023-05-18T17:46:30.647Z,15.65
2023-05-18T17:48:57.266Z,15.61
2023-05-18T17:51:24.716Z,15.47
2023-05-18T17:53:51.466Z,15.33
2023-05-18T17:56:18.264Z,15.23
2023-05-18T17:58:46.166Z,15.06
2023-05-18T18:01:12.896Z,14.95
2023-05-18T18:03:39.667Z,14.82
2023-05-18T18:06:07.016Z,14.68
2023-05-18T18:08:34.182Z,14.54
2023-05-18T18:11:00.849Z,14.37
2023-05-18T18:13:27.695Z,14.23
2023-05-18T18:15:54.509Z,14.09
2023-05-18T18:18:21.480Z,13.94
2023-05-18T18:20:48.232Z,13.83
2023-05-18T18:23:15.673Z,13.65
2023-05-18T18:25:43.483Z,13.52
2023-05-18T18:28:14.607Z,13.41
2023-05-18T18:30:44.207Z,13.31
2023-05-18T18:33:11.693Z,13.18
2023-05-18T18:35:39.638Z,13.08
2023-05-18T18:38:06.629Z,12.93
2023-05-18T18:40:36.036Z,12.80
2023-05-18T18:43:02.675Z,12.71
2023-05-18T18:45:31.436Z,12.60
2023-05-18T18:47:58.982Z,12.49
2023-05-18T18:50:26.313Z,12.34
2023-05-18T18:52:53.490Z,12.22
2023-05-18T18:55:20.568Z,12.11
2023-05-18T18:57:47.250Z,12.05
2023-05-18T19:00:20.049Z,11.96
2023-05-18T19:02:47.219Z,11.88
2023-05-18T19:05:14.053Z,11.77
2023-05-18T19:07:40.841Z,11.70
2023-05-18T19:10:08.653Z,11.64
2023-05-18T19:12:35.338Z,11.54
2023-05-18T19:15:01.961Z,11.45
2023-05-18T19:17:28.620Z,11.37
2023-05-18T19:19:55.338Z,11.34
2023-05-18T19:22:21.932Z,11.24
2023-05-18T19:24:48.567Z,11.19
2023-05-18T19:27:15.296Z,11.13
2023-05-18T19:29:41.937Z,11.06
2023-05-18T19:32:08.636Z,10.96
2023-05-18T19:34:35.502Z,10.91
2023-05-18T19:37:02.319Z,10.83
2023-05-18T19:39:28.918Z,10.80
2023-05-18T19:41:55.658Z,10.75
2023-05-18T19:44:22.294Z,10.69
2023-05-18T19:46:48.982Z,10.63
2023-05-18T19:49:15.699Z,10.61
2023-05-18T19:51:42.362Z,10.55
2023-05-18T19:54:09.065Z,10.54
2023-05-18T19:56:38.435Z,10.54
2023-05-18T19:59:04.992Z,10.49
2023-05-18T20:01:32.246Z,10.46
2023-05-18T20:03:59.988Z,10.46
2023-05-18T20:06:29.246Z,10.44
2023-05-18T20:08:55.808Z,10.48
2023-05-18T20:11:22.705Z,10.45
2023-05-18T20:13:49.369Z,10.44
2023-05-18T20:16:16.297Z,10.38
2023-05-18T20:18:45.832Z,10.38
2023-05-18T20:21:12.569Z,10.31
2023-05-18T20:23:39.304Z,10.28
2023-05-18T20:26:06.639Z,10.25
2023-05-18T20:28:33.783Z,10.30
2023-05-18T20:31:00.448Z,10.44
2023-05-18T20:33:27.140Z,10.51
2023-05-18T20:35:53.767Z,10.56
2023-05-18T20:38:20.386Z,10.59
2023-05-18T20:40:51.133Z,10.66
2023-05-18T20:43:18.180Z,10.69
2023-05-18T20:45:49.049Z,10.66
2023-05-18T20:48:24.663Z,10.63
2023-05-18T20:50:52.469Z,10.65
2023-05-18T20:53:19.399Z,10.63
2023-05-18T20:55:47.675Z,10.59
2023-05-18T20:58:14.964Z,10.61
2023-05-18T21:00:42.172Z,10.54
2023-05-18T21:03:08.863Z,10.52
2023-05-18T21:05:35.576Z,10.45
2023-05-18T21:08:03.302Z,10.37
2023-05-18T21:10:31.946Z,10.28
2023-05-18T21:12:58.992Z,10.21
2023-05-18T21:15:25.831Z,10.15
2023-05-18T21:17:52.560Z,10.11
2023-05-18T21:20:19.367Z,10.08
2023-05-18T21:22:46.593Z,10.11
2023-05-18T21:25:13.364Z,10.13
2023-05-18T21:27:39.983Z,10.11
2023-05-18T21:30:07.722Z,10.11
2023-05-18T21:32:34.550Z,10.10
2023-05-18T21:35:01.468Z,10.05
2023-05-18T21:37:29.244Z,10.00
2023-05-18T21:39:55.882Z,10.00
2023-05-18T21:42:22.772Z,9.97
2023-05-18T21:44:49.385Z,9.98
2023-05-18T21:47:16.021Z,9.98
2023-05-18T21:49:44.095Z,9.91
2023-05-18T21:52:10.804Z,9.80
2023-05-18T21:54:38.505Z,9.82
2023-05-18T21:57:05.831Z,9.73
2023-05-18T21:59:32.493Z,9.70
2023-05-18T22:01:59.189Z,9.69
2023-05-18T22:04:25.887Z,9.60
2023-05-18T22:06:53.167Z,9.53
2023-05-18T22:09:19.903Z,9.43
2023-05-18T22:11:46.642Z,9.40
2023-05-18T22:14:14.989Z,9.43
2023-05-18T22:16:43.776Z,9.36
2023-05-18T22:19:10.499Z,9.29
2023-05-18T22:21:37.148Z,9.29
2023-05-18T22:24:03.935Z,9.29
2023-05-18T22:26:30.578Z,9.25
2023-05-18T22:28:57.166Z,9.19
2023-05-18T22:31:23.909Z,9.18
2023-05-18T22:33:53.207Z,9.12
2023-05-18T22:36:21.569Z,9.11
2023-05-18T22:38:49.635Z,9.08
2023-05-18T22:41:16.560Z,9.07
2023-05-18T22:43:43.459Z,9.10
2023-05-18T22:46:10.855Z,9.11
2023-05-18T22:48:38.001Z,9.11
2023-05-18T22:51:06.010Z,9.08
2023-05-18T22:53:33.506Z,9.02
2023-05-18T22:56:00.346Z,8.97
2023-05-18T22:58:26.870Z,8.89
2023-05-18T23:00:53.573Z,8.85
2023-05-18T23:03:20.457Z,8.81
2023-05-18T23:05:48.366Z,8.78
2023-05-18T23:08:15.709Z,8.75
2023-05-18T23:10:44.262Z,8.73
2023-05-18T23:13:11.858Z,8.71
2023-05-18T23:15:38.826Z,8.74
2023-05-18T23:18:09.148Z,8.68
2023-05-18T23:20:36.157Z,8.68
2023-05-18T23:23:02.975Z,8.60
2023-05-18T23:25:29.913Z,8.56
2023-05-18T23:27:56.592Z,8.49
2023-05-18T23:30:23.261Z,8.42
2023-05-18T23:32:50.292Z,8.39
2023-05-18T23:35:17.940Z,8.33
2023-05-18T23:37:48.154Z,8.26
2023-05-18T23:40:17.768Z,8.23
2023-05-18T23:42:44.552Z,8.17
2023-05-18T23:45:11.807Z,8.16
2023-05-18T23:47:38.602Z,8.21
2023-05-18T23:50:06.302Z,8.21
2023-05-18T23:52:34.269Z,8.29
2023-05-18T23:55:02.601Z,8.29
2023-05-18T23:57:29.350Z,8.22
2023-05-18T23:59:56.226Z,8.10
